sensor_id;sensor_type;location;lat;lon;timestamp;pressure;altitude;pressure_sealevel;temperature;humidity
10720;BME280;5411;58.386;15.560;2023-07-02T00:01:18;98356.81;;;19.33;92.24
10720;BME280;5411;58.386;15.560;2023-07-02T00:03:47;98351.66;;;19.22;93.14
10720;BME280;5411;58.386;15.560;2023-07-02T00:06:15;98354.91;;;19.11;94.56
10720;BME280;5411;58.386;15.560;2023-07-02T00:08:44;98347.03;;;19.01;94.88
10720;BME280;5411;58.386;15.560;2023-07-02T00:11:15;98342.53;;;18.96;95.51
10720;BME280;5411;58.386;15.560;2023-07-02T00:13:44;98337.22;;;18.91;96.38
10720;BME280;5411;58.386;15.560;2023-07-02T00:16:14;98338.66;;;18.89;95.35
10720;BME280;5411;58.386;15.560;2023-07-02T00:18:42;98338.47;;;18.85;97.02
10720;BME280;5411;58.386;15.560;2023-07-02T00:21:19;98340.16;;;18.81;96.28
10720;BME280;5411;58.386;15.560;2023-07-02T00:23:48;98336.06;;;18.83;96.08
10720;BME280;5411;58.386;15.560;2023-07-02T00:26:16;98339.56;;;18.84;96.77
10720;BME280;5411;58.386;15.560;2023-07-02T00:28:44;98335.63;;;18.90;97.12
10720;BME280;5411;58.386;15.560;2023-07-02T00:31:14;98331.13;;;18.85;97.28
10720;BME280;5411;58.386;15.560;2023-07-02T00:33:43;98330.56;;;18.97;96.61
10720;BME280;5411;58.386;15.560;2023-07-02T00:36:12;98327.56;;;18.99;96.52
10720;BME280;5411;58.386;15.560;2023-07-02T00:38:41;98323.56;;;18.96;96.80
10720;BME280;5411;58.386;15.560;2023-07-02T00:41:10;98320.34;;;18.94;97.29
10720;BME280;5411;58.386;15.560;2023-07-02T00:43:39;98319.38;;;18.90;97.37
10720;BME280;5411;58.386;15.560;2023-07-02T00:46:15;98319.84;;;18.92;96.58
10720;BME280;5411;58.386;15.560;2023-07-02T00:48:48;98306.06;;;19.02;96.34
10720;BME280;5411;58.386;15.560;2023-07-02T00:51:17;98306.06;;;19.02;96.40
10720;BME280;5411;58.386;15.560;2023-07-02T00:53:47;98292.31;;;18.99;97.26
10720;BME280;5411;58.386;15.560;2023-07-02T00:56:17;98298.06;;;18.97;97.54
10720;BME280;5411;58.386;15.560;2023-07-02T00:58:47;98290.03;;;18.92;97.52
10720;BME280;5411;58.386;15.560;2023-07-02T01:01:19;98286.66;;;18.86;98.11
10720;BME280;5411;58.386;15.560;2023-07-02T01:03:52;98280.56;;;18.81;98.90
10720;BME280;5411;58.386;15.560;2023-07-02T01:06:28;98281.31;;;18.73;99.66
10720;BME280;5411;58.386;15.560;2023-07-02T01:08:58;98284.13;;;18.68;99.92
10720;BME280;5411;58.386;15.560;2023-07-02T01:11:29;98281.06;;;18.61;100.00
10720;BME280;5411;58.386;15.560;2023-07-02T01:14:01;98264.38;;;18.53;100.00
10720;BME280;5411;58.386;15.560;2023-07-02T01:16:32;98270.59;;;18.54;100.00
10720;BME280;5411;58.386;15.560;2023-07-02T01:19:04;98263.56;;;18.67;100.00
10720;BME280;5411;58.386;15.560;2023-07-02T01:21:39;98253.75;;;18.79;99.09
10720;BME280;5411;58.386;15.560;2023-07-02T01:24:08;98254.38;;;18.99;96.72
10720;BME280;5411;58.386;15.560;2023-07-02T01:26:37;98249.38;;;19.14;96.77
10720;BME280;5411;58.386;15.560;2023-07-02T01:31:59;98235.88;;;19.32;94.82
10720;BME280;5411;58.386;15.560;2023-07-02T01:34:27;98238.78;;;19.35;94.72
10720;BME280;5411;58.386;15.560;2023-07-02T01:36:57;98238.97;;;19.39;94.79
10720;BME280;5411;58.386;15.560;2023-07-02T01:39:25;98236.47;;;19.51;93.12
10720;BME280;5411;58.386;15.560;2023-07-02T01:42:06;98229.44;;;19.50;94.96
10720;BME280;5411;58.386;15.560;2023-07-02T01:44:36;98220.59;;;19.67;93.33
10720;BME280;5411;58.386;15.560;2023-07-02T01:47:05;98217.19;;;19.61;94.58
10720;BME280;5411;58.386;15.560;2023-07-02T01:49:34;98215.28;;;19.53;94.94
10720;BME280;5411;58.386;15.560;2023-07-02T01:52:05;98213.97;;;19.50;95.36
10720;BME280;5411;58.386;15.560;2023-07-02T01:54:35;98206.50;;;19.56;93.47
10720;BME280;5411;58.386;15.560;2023-07-02T01:57:04;98204.25;;;19.58;94.30
10720;BME280;5411;58.386;15.560;2023-07-02T01:59:33;98201.22;;;19.51;95.48
10720;BME280;5411;58.386;15.560;2023-07-02T02:02:02;98196.69;;;19.46;94.46
10720;BME280;5411;58.386;15.560;2023-07-02T02:04:30;98192.88;;;19.47;95.30
10720;BME280;5411;58.386;15.560;2023-07-02T02:06:58;98183.59;;;19.40;96.63
10720;BME280;5411;58.386;15.560;2023-07-02T02:09:28;98181.50;;;19.37;95.91
10720;BME280;5411;58.386;15.560;2023-07-02T02:11:59;98183.56;;;19.31;97.21
10720;BME280;5411;58.386;15.560;2023-07-02T02:14:27;98181.97;;;19.30;97.42
10720;BME280;5411;58.386;15.560;2023-07-02T02:16:55;98179.09;;;19.27;98.00
10720;BME280;5411;58.386;15.560;2023-07-02T02:19:24;98184.16;;;19.19;99.08
10720;BME280;5411;58.386;15.560;2023-07-02T02:21:52;98181.75;;;19.18;98.64
10720;BME280;5411;58.386;15.560;2023-07-02T02:24:21;98178.88;;;19.14;99.35
10720;BME280;5411;58.386;15.560;2023-07-02T02:26:50;98181.63;;;19.23;98.54
10720;BME280;5411;58.386;15.560;2023-07-02T02:29:19;98175.88;;;19.25;96.58
10720;BME280;5411;58.386;15.560;2023-07-02T02:31:47;98174.66;;;19.31;97.40
10720;BME280;5411;58.386;15.560;2023-07-02T02:34:15;98174.84;;;19.43;96.96
10720;BME280;5411;58.386;15.560;2023-07-02T02:36:44;98162.53;;;19.45;95.63
10720;BME280;5411;58.386;15.560;2023-07-02T02:39:13;98170.94;;;19.66;93.54
10720;BME280;5411;58.386;15.560;2023-07-02T02:41:42;98168.56;;;19.90;92.07
10720;BME280;5411;58.386;15.560;2023-07-02T02:44:13;98165.84;;;19.90;95.05
10720;BME280;5411;58.386;15.560;2023-07-02T02:46:41;98165.19;;;19.85;94.12
10720;BME280;5411;58.386;15.560;2023-07-02T02:49:10;98154.03;;;19.78;93.35
10720;BME280;5411;58.386;15.560;2023-07-02T02:51:38;98154.81;;;19.87;93.17
10720;BME280;5411;58.386;15.560;2023-07-02T02:54:07;98155.34;;;20.06;92.36
10720;BME280;5411;58.386;15.560;2023-07-02T02:56:35;98157.09;;;20.19;90.87
10720;BME280;5411;58.386;15.560;2023-07-02T02:59:03;98155.81;;;20.17;91.26
10720;BME280;5411;58.386;15.560;2023-07-02T03:01:33;98144.16;;;20.16;91.34
10720;BME280;5411;58.386;15.560;2023-07-02T03:04:02;98135.84;;;20.21;91.18
10720;BME280;5411;58.386;15.560;2023-07-02T03:06:30;98138.22;;;20.14;92.73
10720;BME280;5411;58.386;15.560;2023-07-02T03:08:59;98135.03;;;20.04;93.61
10720;BME280;5411;58.386;15.560;2023-07-02T03:11:27;98132.00;;;19.88;93.79
10720;BME280;5411;58.386;15.560;2023-07-02T03:13:56;98130.91;;;20.06;92.83
10720;BME280;5411;58.386;15.560;2023-07-02T03:16:24;98123.88;;;20.05;91.79
10720;BME280;5411;58.386;15.560;2023-07-02T03:18:57;98133.78;;;20.10;92.42
10720;BME280;5411;58.386;15.560;2023-07-02T03:21:26;98130.72;;;20.11;93.05
10720;BME280;5411;58.386;15.560;2023-07-02T03:23:54;98134.88;;;20.00;94.39
10720;BME280;5411;58.386;15.560;2023-07-02T03:26:22;98126.75;;;19.91;95.27
10720;BME280;5411;58.386;15.560;2023-07-02T03:28:56;98111.25;;;19.66;96.32
10720;BME280;5411;58.386;15.560;2023-07-02T03:31:25;98123.53;;;19.64;96.60
10720;BME280;5411;58.386;15.560;2023-07-02T03:34:05;98118.22;;;19.58;98.01
10720;BME280;5411;58.386;15.560;2023-07-02T03:36:34;98116.97;;;19.65;97.20
10720;BME280;5411;58.386;15.560;2023-07-02T03:39:02;98110.25;;;19.71;97.96
10720;BME280;5411;58.386;15.560;2023-07-02T03:41:36;98102.47;;;19.78;95.73
10720;BME280;5411;58.386;15.560;2023-07-02T03:44:04;98105.47;;;19.85;96.46
10720;BME280;5411;58.386;15.560;2023-07-02T03:46:35;98102.78;;;19.85;95.80
10720;BME280;5411;58.386;15.560;2023-07-02T03:49:05;98103.75;;;19.80;96.27
10720;BME280;5411;58.386;15.560;2023-07-02T03:51:37;98095.91;;;19.79;97.58
10720;BME280;5411;58.386;15.560;2023-07-02T03:54:06;98095.75;;;19.75;96.37
10720;BME280;5411;58.386;15.560;2023-07-02T03:56:35;98093.22;;;19.70;96.99
10720;BME280;5411;58.386;15.560;2023-07-02T03:59:03;98097.50;;;19.63;97.11
10720;BME280;5411;58.386;15.560;2023-07-02T04:01:32;98091.59;;;19.52;97.72
10720;BME280;5411;58.386;15.560;2023-07-02T04:04:00;98099.34;;;19.36;97.74
10720;BME280;5411;58.386;15.560;2023-07-02T04:06:31;98099.41;;;19.05;98.84
10720;BME280;5411;58.386;15.560;2023-07-02T04:09:00;98089.28;;;18.80;99.74
10720;BME280;5411;58.386;15.560;2023-07-02T04:11:29;98094.28;;;18.64;100.00
10720;BME280;5411;58.386;15.560;2023-07-02T04:13:57;98091.97;;;18.49;100.00
10720;BME280;5411;58.386;15.560;2023-07-02T04:16:25;98101.09;;;18.31;100.00
10720;BME280;5411;58.386;15.560;2023-07-02T04:18:54;98099.88;;;18.14;100.00
10720;BME280;5411;58.386;15.560;2023-07-02T04:21:22;98101.72;;;18.05;100.00
10720;BME280;5411;58.386;15.560;2023-07-02T04:23:52;98100.41;;;18.03;100.00
10720;BME280;5411;58.386;15.560;2023-07-02T04:26:20;98095.44;;;17.96;100.00
10720;BME280;5411;58.386;15.560;2023-07-02T04:29:09;98101.53;;;18.02;100.00
10720;BME280;5411;58.386;15.560;2023-07-02T04:31:38;98101.53;;;18.02;100.00
10720;BME280;5411;58.386;15.560;2023-07-02T04:34:06;98100.06;;;17.96;100.00
10720;BME280;5411;58.386;15.560;2023-07-02T04:36:35;98100.88;;;17.96;100.00
10720;BME280;5411;58.386;15.560;2023-07-02T04:39:05;98101.16;;;17.95;100.00
10720;BME280;5411;58.386;15.560;2023-07-02T04:41:34;98099.56;;;17.94;100.00
10720;BME280;5411;58.386;15.560;2023-07-02T04:44:03;98103.06;;;17.94;100.00
10720;BME280;5411;58.386;15.560;2023-07-02T04:46:31;98104.78;;;17.90;100.00
10720;BME280;5411;58.386;15.560;2023-07-02T04:49:00;98107.28;;;17.87;100.00
10720;BME280;5411;58.386;15.560;2023-07-02T04:51:28;98104.41;;;17.83;100.00
10720;BME280;5411;58.386;15.560;2023-07-02T04:53:59;98103.97;;;17.90;100.00
10720;BME280;5411;58.386;15.560;2023-07-02T04:56:32;98107.06;;;17.97;100.00
10720;BME280;5411;58.386;15.560;2023-07-02T04:59:00;98101.66;;;17.97;100.00
10720;BME280;5411;58.386;15.560;2023-07-02T05:01:29;98095.19;;;18.06;100.00
10720;BME280;5411;58.386;15.560;2023-07-02T05:03:57;98097.75;;;18.11;100.00
10720;BME280;5411;58.386;15.560;2023-07-02T05:06:26;98093.03;;;18.17;100.00
10720;BME280;5411;58.386;15.560;2023-07-02T05:08:54;98088.16;;;18.28;100.00
10720;BME280;5411;58.386;15.560;2023-07-02T05:11:22;98097.47;;;18.35;100.00
10720;BME280;5411;58.386;15.560;2023-07-02T05:13:52;98098.75;;;18.38;100.00
10720;BME280;5411;58.386;15.560;2023-07-02T05:16:21;98087.75;;;18.34;100.00
10720;BME280;5411;58.386;15.560;2023-07-02T05:18:49;98093.19;;;18.43;100.00
10720;BME280;5411;58.386;15.560;2023-07-02T05:21:18;98089.88;;;18.46;100.00
10720;BME280;5411;58.386;15.560;2023-07-02T05:23:47;98091.22;;;18.57;100.00
10720;BME280;5411;58.386;15.560;2023-07-02T05:26:16;98089.72;;;18.73;100.00
10720;BME280;5411;58.386;15.560;2023-07-02T05:28:44;98097.41;;;18.80;100.00
10720;BME280;5411;58.386;15.560;2023-07-02T05:31:14;98092.19;;;18.92;100.00
10720;BME280;5411;58.386;15.560;2023-07-02T05:33:42;98087.94;;;19.08;100.00
10720;BME280;5411;58.386;15.560;2023-07-02T05:36:11;98090.84;;;19.20;100.00
10720;BME280;5411;58.386;15.560;2023-07-02T05:38:45;98094.41;;;19.30;100.00
10720;BME280;5411;58.386;15.560;2023-07-02T05:41:18;98092.16;;;19.32;100.00
10720;BME280;5411;58.386;15.560;2023-07-02T05:43:48;98097.78;;;19.44;99.72
10720;BME280;5411;58.386;15.560;2023-07-02T05:46:28;98089.63;;;19.44;97.77
10720;BME280;5411;58.386;15.560;2023-07-02T05:48:57;98084.97;;;19.44;96.47
10720;BME280;5411;58.386;15.560;2023-07-02T05:51:29;98085.16;;;19.48;94.69
10720;BME280;5411;58.386;15.560;2023-07-02T05:53:58;98081.47;;;19.35;95.78
10720;BME280;5411;58.386;15.560;2023-07-02T05:56:26;98086.91;;;19.35;95.35
10720;BME280;5411;58.386;15.560;2023-07-02T05:58:55;98084.81;;;19.32;96.02
10720;BME280;5411;58.386;15.560;2023-07-02T06:01:25;98095.22;;;19.39;96.18
10720;BME280;5411;58.386;15.560;2023-07-02T06:03:56;98088.03;;;19.43;97.01
10720;BME280;5411;58.386;15.560;2023-07-02T06:06:24;98086.78;;;19.49;96.33
10720;BME280;5411;58.386;15.560;2023-07-02T06:08:52;98084.34;;;19.47;96.41
10720;BME280;5411;58.386;15.560;2023-07-02T06:11:21;98092.69;;;19.60;96.38
10720;BME280;5411;58.386;15.560;2023-07-02T06:13:49;98082.16;;;19.49;96.40
10720;BME280;5411;58.386;15.560;2023-07-02T06:16:18;98089.38;;;19.54;97.38
10720;BME280;5411;58.386;15.560;2023-07-02T06:18:48;98081.72;;;19.65;95.00
10720;BME280;5411;58.386;15.560;2023-07-02T06:21:17;98085.56;;;19.81;95.56
10720;BME280;5411;58.386;15.560;2023-07-02T06:23:46;98076.75;;;19.92;94.49
10720;BME280;5411;58.386;15.560;2023-07-02T06:28:59;98084.28;;;19.96;92.88
10720;BME280;5411;58.386;15.560;2023-07-02T06:31:27;98081.25;;;19.97;92.49
10720;BME280;5411;58.386;15.560;2023-07-02T06:33:58;98070.84;;;19.99;91.79
10720;BME280;5411;58.386;15.560;2023-07-02T06:36:27;98077.22;;;20.12;91.97
10720;BME280;5411;58.386;15.560;2023-07-02T06:38:55;98071.78;;;20.12;91.60
10720;BME280;5411;58.386;15.560;2023-07-02T06:41:33;98078.47;;;20.32;91.12
10720;BME280;5411;58.386;15.560;2023-07-02T06:44:03;98075.75;;;20.49;89.94
10720;BME280;5411;58.386;15.560;2023-07-02T06:46:33;98074.75;;;20.62;88.79
10720;BME280;5411;58.386;15.560;2023-07-02T06:49:02;98072.06;;;20.91;88.12
10720;BME280;5411;58.386;15.560;2023-07-02T06:51:30;98073.25;;;21.11;86.43
10720;BME280;5411;58.386;15.560;2023-07-02T06:54:00;98077.06;;;21.19;84.80
10720;BME280;5411;58.386;15.560;2023-07-02T06:56:28;98076.41;;;21.22;84.55
10720;BME280;5411;58.386;15.560;2023-07-02T06:58:58;98072.72;;;21.18;84.93
10720;BME280;5411;58.386;15.560;2023-07-02T07:01:28;98076.78;;;21.12;85.19
10720;BME280;5411;58.386;15.560;2023-07-02T07:03:57;98068.19;;;21.01;84.05
10720;BME280;5411;58.386;15.560;2023-07-02T07:06:28;98071.63;;;20.81;85.59
10720;BME280;5411;58.386;15.560;2023-07-02T07:08:57;98070.84;;;20.80;87.10
10720;BME280;5411;58.386;15.560;2023-07-02T07:11:25;98070.19;;;20.83;86.59
10720;BME280;5411;58.386;15.560;2023-07-02T07:13:53;98062.41;;;20.73;85.88
10720;BME280;5411;58.386;15.560;2023-07-02T07:16:21;98069.75;;;20.73;86.84
10720;BME280;5411;58.386;15.560;2023-07-02T07:18:50;98060.66;;;20.69;86.41
10720;BME280;5411;58.386;15.560;2023-07-02T07:21:19;98070.56;;;20.73;85.69
10720;BME280;5411;58.386;15.560;2023-07-02T07:23:48;98066.19;;;20.81;85.45
10720;BME280;5411;58.386;15.560;2023-07-02T07:26:17;98061.75;;;20.68;86.10
10720;BME280;5411;58.386;15.560;2023-07-02T07:28:45;98063.38;;;20.69;86.64
10720;BME280;5411;58.386;15.560;2023-07-02T07:31:14;98064.91;;;20.78;85.77
10720;BME280;5411;58.386;15.560;2023-07-02T07:33:42;98056.44;;;20.80;86.60
10720;BME280;5411;58.386;15.560;2023-07-02T07:36:11;98056.53;;;20.92;86.09
10720;BME280;5411;58.386;15.560;2023-07-02T07:38:43;98063.97;;;21.12;85.23
10720;BME280;5411;58.386;15.560;2023-07-02T07:41:12;98062.44;;;21.32;82.19
10720;BME280;5411;58.386;15.560;2023-07-02T07:43:40;98059.84;;;21.36;82.71
10720;BME280;5411;58.386;15.560;2023-07-02T07:46:09;98062.19;;;21.46;81.07
10720;BME280;5411;58.386;15.560;2023-07-02T07:48:37;98063.31;;;21.45;81.58
10720;BME280;5411;58.386;15.560;2023-07-02T07:51:06;98064.31;;;21.40;81.09
10720;BME280;5411;58.386;15.560;2023-07-02T07:53:37;98067.13;;;21.23;81.81
10720;BME280;5411;58.386;15.560;2023-07-02T07:56:06;98060.06;;;21.30;81.46
10720;BME280;5411;58.386;15.560;2023-07-02T07:58:36;98067.47;;;21.21;81.17
10720;BME280;5411;58.386;15.560;2023-07-02T08:01:04;98067.34;;;21.09;82.05
10720;BME280;5411;58.386;15.560;2023-07-02T08:03:33;98076.16;;;20.77;84.02
10720;BME280;5411;58.386;15.560;2023-07-02T08:06:01;98079.09;;;20.46;85.99
10720;BME280;5411;58.386;15.560;2023-07-02T08:08:29;98088.22;;;20.15;87.65
10720;BME280;5411;58.386;15.560;2023-07-02T08:11:01;98086.16;;;19.86;88.96
10720;BME280;5411;58.386;15.560;2023-07-02T08:13:29;98086.03;;;19.57;90.70
10720;BME280;5411;58.386;15.560;2023-07-02T08:15:59;98082.63;;;19.43;93.23
10720;BME280;5411;58.386;15.560;2023-07-02T08:18:28;98079.41;;;19.41;94.52
10720;BME280;5411;58.386;15.560;2023-07-02T08:20:56;98082.75;;;19.38;95.36
10720;BME280;5411;58.386;15.560;2023-07-02T08:23:31;98087.38;;;19.46;95.36
10720;BME280;5411;58.386;15.560;2023-07-02T08:25:59;98085.53;;;19.55;94.85
10720;BME280;5411;58.386;15.560;2023-07-02T08:28:27;98091.63;;;19.69;93.65
10720;BME280;5411;58.386;15.560;2023-07-02T08:30:56;98085.72;;;19.93;94.18
10720;BME280;5411;58.386;15.560;2023-07-02T08:33:28;98088.72;;;20.09;93.04
10720;BME280;5411;58.386;15.560;2023-07-02T08:35:56;98078.97;;;20.16;92.77
10720;BME280;5411;58.386;15.560;2023-07-02T08:38:25;98083.41;;;20.29;91.65
10720;BME280;5411;58.386;15.560;2023-07-02T08:40:55;98079.28;;;20.32;91.97
10720;BME280;5411;58.386;15.560;2023-07-02T08:43:25;98083.75;;;20.28;91.55
10720;BME280;5411;58.386;15.560;2023-07-02T08:45:54;98077.84;;;20.35;91.72
10720;BME280;5411;58.386;15.560;2023-07-02T08:48:23;98084.38;;;20.42;91.81
10720;BME280;5411;58.386;15.560;2023-07-02T08:50:54;98093.34;;;20.34;91.05
10720;BME280;5411;58.386;15.560;2023-07-02T08:53:23;98090.16;;;20.15;86.18
10720;BME280;5411;58.386;15.560;2023-07-02T08:55:56;98092.56;;;20.08;86.89
10720;BME280;5411;58.386;15.560;2023-07-02T08:58:26;98095.75;;;20.01;84.13
10720;BME280;5411;58.386;15.560;2023-07-02T09:01:05;98097.03;;;20.04;84.12
10720;BME280;5411;58.386;15.560;2023-07-02T09:03:34;98095.94;;;19.96;83.93
10720;BME280;5411;58.386;15.560;2023-07-02T09:06:06;98094.94;;;20.01;83.59
10720;BME280;5411;58.386;15.560;2023-07-02T09:08:35;98093.03;;;20.01;84.96
10720;BME280;5411;58.386;15.560;2023-07-02T09:11:08;98093.69;;;20.07;84.62
10720;BME280;5411;58.386;15.560;2023-07-02T09:13:44;98098.31;;;19.98;84.86
10720;BME280;5411;58.386;15.560;2023-07-02T09:16:23;98100.06;;;19.93;84.77
10720;BME280;5411;58.386;15.560;2023-07-02T09:18:57;98098.31;;;19.89;86.42
10720;BME280;5411;58.386;15.560;2023-07-02T09:21:27;98096.56;;;20.10;87.28
10720;BME280;5411;58.386;15.560;2023-07-02T09:23:56;98100.84;;;20.20;85.79
10720;BME280;5411;58.386;15.560;2023-07-02T09:26:25;98087.44;;;20.15;86.16
10720;BME280;5411;58.386;15.560;2023-07-02T09:29:01;98094.31;;;20.21;84.98
10720;BME280;5411;58.386;15.560;2023-07-02T09:31:29;98090.50;;;20.05;85.56
10720;BME280;5411;58.386;15.560;2023-07-02T09:34:01;98106.94;;;20.08;85.01
10720;BME280;5411;58.386;15.560;2023-07-02T09:36:32;98096.34;;;20.24;81.39
10720;BME280;5411;58.386;15.560;2023-07-02T09:39:00;98098.78;;;20.17;80.32
10720;BME280;5411;58.386;15.560;2023-07-02T09:41:29;98103.56;;;20.28;80.43
10720;BME280;5411;58.386;15.560;2023-07-02T09:43:59;98098.25;;;20.58;78.82
10720;BME280;5411;58.386;15.560;2023-07-02T09:46:30;98110.00;;;20.88;74.28
10720;BME280;5411;58.386;15.560;2023-07-02T09:49:00;98102.63;;;20.88;72.04
10720;BME280;5411;58.386;15.560;2023-07-02T09:51:29;98104.78;;;20.66;69.98
10720;BME280;5411;58.386;15.560;2023-07-02T09:53:59;98121.75;;;20.54;70.54
10720;BME280;5411;58.386;15.560;2023-07-02T09:56:27;98104.53;;;20.41;71.22
10720;BME280;5411;58.386;15.560;2023-07-02T09:58:56;98108.97;;;20.54;72.24
10720;BME280;5411;58.386;15.560;2023-07-02T10:01:25;98109.16;;;20.41;68.77
10720;BME280;5411;58.386;15.560;2023-07-02T10:03:54;98112.69;;;20.15;68.78
10720;BME280;5411;58.386;15.560;2023-07-02T10:06:22;98112.38;;;19.91;67.57
10720;BME280;5411;58.386;15.560;2023-07-02T10:08:54;98112.38;;;19.82;69.58
10720;BME280;5411;58.386;15.560;2023-07-02T10:11:34;98109.78;;;20.12;71.20
10720;BME280;5411;58.386;15.560;2023-07-02T10:14:03;98111.09;;;20.23;68.11
10720;BME280;5411;58.386;15.560;2023-07-02T10:16:31;98121.31;;;20.43;68.38
10720;BME280;5411;58.386;15.560;2023-07-02T10:19:09;98116.31;;;20.54;67.73
10720;BME280;5411;58.386;15.560;2023-07-02T10:21:38;98105.09;;;20.73;67.40
10720;BME280;5411;58.386;15.560;2023-07-02T10:24:12;98106.44;;;20.96;64.42
10720;BME280;5411;58.386;15.560;2023-07-02T10:26:54;98110.69;;;21.14;64.08
10720;BME280;5411;58.386;15.560;2023-07-02T10:29:24;98114.97;;;21.24;64.64
10720;BME280;5411;58.386;15.560;2023-07-02T10:31:54;98107.28;;;21.17;62.80
10720;BME280;5411;58.386;15.560;2023-07-02T10:34:30;98115.06;;;20.98;61.42
10720;BME280;5411;58.386;15.560;2023-07-02T10:37:00;98117.09;;;21.10;62.34
10720;BME280;5411;58.386;15.560;2023-07-02T10:39:29;98114.09;;;21.03;61.91
10720;BME280;5411;58.386;15.560;2023-07-02T10:42:07;98105.16;;;21.02;59.73
10720;BME280;5411;58.386;15.560;2023-07-02T10:44:49;98100.88;;;20.84;57.52
10720;BME280;5411;58.386;15.560;2023-07-02T10:47:18;98104.28;;;20.72;61.88
10720;BME280;5411;58.386;15.560;2023-07-02T10:49:48;98094.38;;;20.68;60.22
10720;BME280;5411;58.386;15.560;2023-07-02T10:52:21;98102.84;;;20.66;57.94
10720;BME280;5411;58.386;15.560;2023-07-02T10:54:49;98108.81;;;20.59;59.26
10720;BME280;5411;58.386;15.560;2023-07-02T10:57:20;98114.72;;;20.61;60.55
10720;BME280;5411;58.386;15.560;2023-07-02T10:59:48;98112.47;;;20.55;61.03
10720;BME280;5411;58.386;15.560;2023-07-02T11:02:17;98106.25;;;20.63;60.87
10720;BME280;5411;58.386;15.560;2023-07-02T11:04:46;98100.41;;;20.82;59.83
10720;BME280;5411;58.386;15.560;2023-07-02T11:07:22;98109.56;;;21.15;62.00
10720;BME280;5411;58.386;15.560;2023-07-02T11:09:53;98105.16;;;21.31;60.05
10720;BME280;5411;58.386;15.560;2023-07-02T11:12:29;98104.28;;;21.48;57.67
10720;BME280;5411;58.386;15.560;2023-07-02T11:15:07;98097.38;;;21.72;56.72
10720;BME280;5411;58.386;15.560;2023-07-02T11:17:36;98093.81;;;22.00;57.24
10720;BME280;5411;58.386;15.560;2023-07-02T11:20:05;98104.81;;;22.25;56.01
10720;BME280;5411;58.386;15.560;2023-07-02T11:22:36;98081.69;;;22.31;57.92
10720;BME280;5411;58.386;15.560;2023-07-02T11:25:17;98100.59;;;22.48;56.79
10720;BME280;5411;58.386;15.560;2023-07-02T11:27:48;98088.59;;;22.61;54.28
10720;BME280;5411;58.386;15.560;2023-07-02T11:30:16;98093.72;;;22.63;54.83
10720;BME280;5411;58.386;15.560;2023-07-02T11:32:50;98084.72;;;22.62;52.92
10720;BME280;5411;58.386;15.560;2023-07-02T11:35:19;98106.34;;;22.34;53.29
10720;BME280;5411;58.386;15.560;2023-07-02T11:37:48;98113.81;;;22.04;54.47
10720;BME280;5411;58.386;15.560;2023-07-02T11:40:20;98115.13;;;21.78;54.66
10720;BME280;5411;58.386;15.560;2023-07-02T11:42:50;98107.53;;;21.42;55.72
10720;BME280;5411;58.386;15.560;2023-07-02T11:45:19;98100.50;;;21.41;56.45
10720;BME280;5411;58.386;15.560;2023-07-02T11:47:47;98108.34;;;21.63;56.75
10720;BME280;5411;58.386;15.560;2023-07-02T11:50:16;98099.66;;;21.90;55.75
10720;BME280;5411;58.386;15.560;2023-07-02T11:52:53;98093.06;;;22.12;54.06
10720;BME280;5411;58.386;15.560;2023-07-02T11:55:22;98084.84;;;22.21;53.18
10720;BME280;5411;58.386;15.560;2023-07-02T11:57:52;98094.69;;;22.46;52.33
10720;BME280;5411;58.386;15.560;2023-07-02T12:00:23;98102.25;;;22.73;51.17
10720;BME280;5411;58.386;15.560;2023-07-02T12:02:51;98097.59;;;22.74;51.11
10720;BME280;5411;58.386;15.560;2023-07-02T12:05:20;98097.31;;;22.55;51.78
10720;BME280;5411;58.386;15.560;2023-07-02T12:07:48;98115.06;;;22.28;52.38
10720;BME280;5411;58.386;15.560;2023-07-02T12:10:18;98116.88;;;21.82;53.23
10720;BME280;5411;58.386;15.560;2023-07-02T12:12:46;98116.09;;;21.52;54.56
10720;BME280;5411;58.386;15.560;2023-07-02T12:15:16;98121.88;;;21.51;51.96
10720;BME280;5411;58.386;15.560;2023-07-02T12:17:45;98124.59;;;21.51;47.97
10720;BME280;5411;58.386;15.560;2023-07-02T12:20:14;98118.34;;;21.50;47.44
10720;BME280;5411;58.386;15.560;2023-07-02T12:22:45;98109.44;;;21.41;50.01
10720;BME280;5411;58.386;15.560;2023-07-02T12:25:14;98115.69;;;21.42;52.32
10720;BME280;5411;58.386;15.560;2023-07-02T12:27:43;98119.91;;;21.30;52.58
10720;BME280;5411;58.386;15.560;2023-07-02T12:30:11;98108.03;;;21.35;52.68
10720;BME280;5411;58.386;15.560;2023-07-02T12:32:46;98117.13;;;21.39;54.36
10720;BME280;5411;58.386;15.560;2023-07-02T12:35:14;98114.34;;;21.48;53.86
10720;BME280;5411;58.386;15.560;2023-07-02T12:37:44;98106.88;;;21.65;54.67
10720;BME280;5411;58.386;15.560;2023-07-02T12:40:14;98116.31;;;21.89;53.17
10720;BME280;5411;58.386;15.560;2023-07-02T12:42:44;98111.94;;;21.96;52.32
10720;BME280;5411;58.386;15.560;2023-07-02T12:45:14;98114.88;;;22.12;52.07
10720;BME280;5411;58.386;15.560;2023-07-02T12:47:48;98106.00;;;22.36;51.24
10720;BME280;5411;58.386;15.560;2023-07-02T12:50:16;98114.06;;;22.32;51.92
10720;BME280;5411;58.386;15.560;2023-07-02T12:52:46;98126.97;;;22.23;48.33
10720;BME280;5411;58.386;15.560;2023-07-02T12:55:14;98134.41;;;22.14;47.82
10720;BME280;5411;58.386;15.560;2023-07-02T12:57:42;98129.84;;;22.06;46.33
10720;BME280;5411;58.386;15.560;2023-07-02T13:00:14;98136.66;;;21.91;48.68
10720;BME280;5411;58.386;15.560;2023-07-02T13:02:43;98141.22;;;21.79;46.81
10720;BME280;5411;58.386;15.560;2023-07-02T13:05:31;98128.91;;;21.73;46.96
10720;BME280;5411;58.386;15.560;2023-07-02T13:07:59;98133.31;;;21.65;49.56
10720;BME280;5411;58.386;15.560;2023-07-02T13:10:28;98138.03;;;21.77;47.87
10720;BME280;5411;58.386;15.560;2023-07-02T13:12:57;98146.28;;;21.89;48.30
10720;BME280;5411;58.386;15.560;2023-07-02T13:15:49;98146.38;;;22.01;47.65
10720;BME280;5411;58.386;15.560;2023-07-02T13:18:18;98137.06;;;22.02;45.07
10720;BME280;5411;58.386;15.560;2023-07-02T13:20:48;98140.69;;;21.85;45.36